Главная страница
METAR-TAF:

METAR-TAF

Аэропорты :

Гамбург-Финкенвердер

Финкенвердер, Германия

широта: 53-32N, долгота: 009-50E, высота над уровнем моря: 5 м

Текущие метеонаблюдения

Эта сводка был подготовлена 21 минут назад, в 02:20 UTC
Ветер 5 Узел от западно-северо-западный
Температура 13°C
Влажность 94%
Давление 1020 hPa
Видимость: 0300 м

METAR: EDHI 180220Z AUTO 29005KT 0350 0300 R23/0650U // VV002 13/12 Q1020

Время: 04:41 (02:41 UTC)

Прогноз

Эта сводка был подготовлена 9 часа и 41 минут назад, в 17:00 UTC
Прогноз действительный с 17-го 18 UTC до 17-го 21 UTC
Ветер 4 Узел от северо-западный
Видимость 10 км и более
Нет облачности ниже 1500 м, и нет кучево-дождевой облачности
временами
С 17-го 20 UTC до 17-го 21 UTC
Видимость: 4000 м
дымка

TAF: EDHI 171700Z 1718/1721 31004KT CAVOK TEMPO 1720/1721 4000 BR

Метеонаблюдения и прогнозы для более 4000 аэропортов (сводки METAR и TAF).

Имеющиеся станции представлены на карте желтыми и красными точками.

Чтобы увидеть название станции, наведите на нее мышь.

Затем щелкните, чтобы увидеть метеонаблюдения и метеопрогнозы.

Управление картой: чтобы увеличить масштаб, щелкните зеленые кнопки с черным крестиком; чтобы уменьшить масштаб, щелкните зеленую кнопку с тире; для просмотра соседних карт щелкайте зеленые стрелки.


METAR-TAF: